Time;durP1;ratioP1;P1;durP2;ratioP2;P2;SDS_P1;SDS_P2;PMS_P1;PMS_P2;Temp;Humidity;BMP_temperature;BMP_pressure;BME280_temperature;BME280_humidity;BME280_pressure;Samples;Min_cycle;Max_cycle;Signal;HPM_P1;HPM_P2
2023/08/11 00:01:05;;;;;;;0.52;0.52;;;;;;;13.89;80.65;100179.41;5095181;28;20044;-66
2023/08/11 00:03:34;;;;;;;0.43;0.43;;;;;;;13.86;80.54;100181.16;5095047;28;20044;-66
2023/08/11 00:06:06;;;;;;;0.50;0.50;;;;;;;13.79;80.47;100179.50;5095030;28;20109;-66
2023/08/11 00:08:38;;;;;;;0.70;0.70;;;;;;;13.71;80.30;100170.97;5094999;28;20048;-66
2023/08/11 00:11:07;;;;;;;0.60;0.60;;;;;;;13.64;80.35;100169.31;5095300;28;20067;-66
2023/08/11 00:13:36;;;;;;;1.13;0.80;;;;;;;13.55;80.71;100172.78;5094815;28;20079;-65
2023/08/11 00:16:07;;;;;;;0.32;0.32;;;;;;;13.49;81.02;100169.38;5094811;28;20684;-66
2023/08/11 00:18:36;;;;;;;1.20;1.10;;;;;;;13.41;81.03;100166.88;5094806;28;20048;-65
2023/08/11 00:21:07;;;;;;;0.60;0.60;;;;;;;13.47;80.79;100160.84;5095370;28;20048;-66
2023/08/11 00:23:39;;;;;;;0.40;0.40;;;;;;;13.50;81.12;100165.97;5094837;28;20041;-66
2023/08/11 00:26:08;;;;;;;0.77;0.60;;;;;;;13.47;81.22;100165.97;5094725;28;20101;-65
2023/08/11 00:28:38;;;;;;;0.55;0.55;;;;;;;13.44;81.02;100162.56;5095343;28;20044;-65
2023/08/11 00:31:08;;;;;;;0.63;0.63;;;;;;;13.49;81.23;100164.25;5094652;28;20046;-66
2023/08/11 00:33:37;;;;;;;0.35;0.35;;;;;;;13.46;81.39;100164.28;5094490;28;20040;-66
2023/08/11 00:36:09;;;;;;;0.50;0.50;;;;;;;13.51;80.95;100165.94;5094564;28;20546;-65
2023/08/11 00:38:38;;;;;;;0.70;0.70;;;;;;;13.62;81.02;100160.78;5093326;28;20052;-66
2023/08/11 00:41:08;;;;;;;0.50;0.50;;;;;;;13.64;80.75;100159.06;5127328;28;20140;-66
2023/08/11 00:43:37;;;;;;;0.50;0.50;;;;;;;13.65;80.69;100165.91;4996419;28;2781839;-66
2023/08/11 00:46:11;;;;;;;0.70;0.70;;;;;;;13.66;80.46;100172.72;5128579;27;20078;-65
2023/08/11 00:48:42;;;;;;;0.52;0.52;;;;;;;13.67;80.32;100174.44;5095617;28;20144;-66
2023/08/11 00:51:16;;;;;;;0.45;0.45;;;;;;;13.67;80.45;100171.88;5095567;28;20048;-66
2023/08/11 00:53:46;;;;;;;1.00;0.90;;;;;;;13.65;80.09;100166.75;5095191;28;20044;-66
2023/08/11 00:56:16;;;;;;;1.05;0.98;;;;;;;13.67;80.22;100174.44;5094304;28;20123;-66
2023/08/11 00:58:45;;;;;;;0.68;0.68;;;;;;;13.71;79.68;100173.53;5095419;28;20091;-65
2023/08/11 01:01:14;;;;;;;0.50;0.50;;;;;;;13.67;79.45;100175.28;5095307;28;20406;-66
2023/08/11 01:03:47;;;;;;;0.90;0.85;;;;;;;13.63;79.30;100172.75;5095076;28;20052;-66
2023/08/11 01:06:29;;;;;;;1.15;1.05;;;;;;;13.65;79.57;100176.16;5094240;28;20044;-66
2023/08/11 01:09:09;;;;;;;0.47;0.47;;;;;;;13.59;79.24;100168.47;5094363;28;20065;-66
2023/08/11 01:11:45;;;;;;;0.88;0.88;;;;;;;13.57;79.79;100167.63;5094984;28;20048;-65
2023/08/11 01:14:20;;;;;;;0.85;0.85;;;;;;;13.55;79.66;100165.09;5093601;28;20412;-66
2023/08/11 01:16:51;;;;;;;0.70;0.70;;;;;;;13.56;79.69;100171.06;5093871;28;20047;-66
2023/08/11 01:19:28;;;;;;;0.50;0.50;;;;;;;13.50;79.67;100165.97;5095370;28;20130;-66
2023/08/11 01:22:02;;;;;;;0.40;0.40;;;;;;;13.54;79.57;100163.38;5094670;28;20052;-66
2023/08/11 01:24:34;;;;;;;0.50;0.50;;;;;;;13.44;79.59;100164.28;5094938;28;20367;-66
2023/08/11 01:27:05;;;;;;;0.43;0.43;;;;;;;13.44;79.73;100166.84;5093681;28;20066;-65
2023/08/11 01:29:34;;;;;;;0.60;0.60;;;;;;;13.49;79.97;100169.38;5094591;28;20044;-65
2023/08/11 01:32:04;;;;;;;0.40;0.40;;;;;;;13.47;79.41;100171.97;5094476;28;20040;-65
2023/08/11 01:34:33;;;;;;;;;;;;;;;13.48;79.91;100172.81;5094829;28;20130;-65
2023/08/11 01:37:04;;;;;;;0.60;0.60;;;;;;;13.44;79.44;100172.81;5127516;27;20388;-65
2023/08/11 01:39:36;;;;;;;0.85;0.80;;;;;;;13.45;79.98;100173.69;5094329;28;20127;-65
2023/08/11 01:42:05;;;;;;;0.70;0.70;;;;;;;13.43;79.88;100176.28;5094281;28;20059;-66
2023/08/11 01:44:34;;;;;;;0.70;0.70;;;;;;;13.43;79.44;100171.13;5092856;28;20047;-66
2023/08/11 01:47:06;;;;;;;1.08;0.82;;;;;;;13.36;79.76;100168.59;5094565;28;20127;-65
2023/08/11 01:49:36;;;;;;;0.93;0.90;;;;;;;13.26;79.44;100172.91;5093056;28;20044;-66
2023/08/11 01:52:05;;;;;;;0.80;0.80;;;;;;;13.27;79.28;100174.59;5094099;28;20050;-66
2023/08/11 01:54:35;;;;;;;1.10;1.00;;;;;;;13.25;79.58;100178.88;5094063;28;20080;-65
2023/08/11 01:57:06;;;;;;;0.47;0.43;;;;;;;13.24;79.81;100171.22;5094143;28;20051;-66
2023/08/11 01:59:35;;;;;;;1.13;0.85;;;;;;;13.24;79.42;100178.91;5094630;28;20130;-65
2023/08/11 02:02:04;;;;;;;0.50;0.50;;;;;;;13.23;79.30;100172.06;5127156;27;20042;-66
2023/08/11 02:04:33;;;;;;;0.70;0.70;;;;;;;13.17;79.42;100172.91;5092800;28;20044;-66
2023/08/11 02:07:02;;;;;;;0.50;0.50;;;;;;;13.18;79.45;100174.63;5094264;28;20067;-66
2023/08/11 02:09:31;;;;;;;0.50;0.50;;;;;;;13.14;79.50;100174.66;5093089;28;20520;-65
2023/08/11 02:12:01;;;;;;;0.40;0.40;;;;;;;13.19;79.70;100165.25;5094189;28;20041;-65
2023/08/11 02:14:31;;;;;;;0.47;0.47;;;;;;;13.22;79.44;100166.06;5109458;28;20044;-65
2023/08/11 02:17:01;;;;;;;0.60;0.60;;;;;;;13.21;79.47;100174.63;5092803;28;20508;-65
2023/08/11 02:19:29;;;;;;;0.77;0.77;;;;;;;13.21;79.41;100174.63;5092574;28;20040;-65
2023/08/11 02:21:58;;;;;;;0.73;0.73;;;;;;;13.17;79.57;100172.91;5094121;28;20486;-66
2023/08/11 02:24:27;;;;;;;1.77;0.93;;;;;;;13.15;79.67;100168.69;5093697;28;20281;-66
2023/08/11 02:26:56;;;;;;;0.63;0.63;;;;;;;13.14;79.86;100167.84;5092586;28;20109;-65
2023/08/11 02:29:27;;;;;;;3.72;1.35;;;;;;;13.06;79.49;100169.56;5126398;28;20044;-66
2023/08/11 02:31:56;;;;;;;0.85;0.75;;;;;;;12.99;79.66;100162.72;5094312;28;20052;-66
2023/08/11 02:34:25;;;;;;;1.75;1.25;;;;;;;12.95;79.97;100163.59;5109582;28;20062;-65
2023/08/11 02:36:54;;;;;;;1.30;0.80;;;;;;;12.93;80.02;100167.88;5093576;28;20052;-65
2023/08/11 02:39:23;;;;;;;0.80;0.80;;;;;;;12.79;80.01;100169.56;5093512;28;20046;-66
2023/08/11 02:41:52;;;;;;;1.95;1.63;;;;;;;12.70;80.21;100174.72;5092623;28;20047;-65
2023/08/11 02:44:22;;;;;;;0.73;0.53;;;;;;;12.76;80.42;100179.84;5093278;28;20040;-65
2023/08/11 02:46:52;;;;;;;0.40;0.40;;;;;;;12.75;80.27;100180.69;5093478;28;20367;-66
2023/08/11 02:49:21;;;;;;;0.60;0.60;;;;;;;12.77;80.64;100181.53;5092315;28;20055;-66
2023/08/11 02:51:50;;;;;;;1.17;1.07;;;;;;;12.74;80.58;100181.56;5092196;28;20040;-66
2023/08/11 02:54:19;;;;;;;0.40;0.40;;;;;;;12.69;80.19;100184.09;5092161;28;20334;-66
2023/08/11 02:56:48;;;;;;;1.25;0.98;;;;;;;12.65;80.14;100186.69;5093577;28;20043;-66
2023/08/11 02:59:17;;;;;;;0.98;0.95;;;;;;;12.64;80.10;100185.00;5092235;28;20050;-66
2023/08/11 03:01:48;;;;;;;0.40;0.40;;;;;;;12.63;80.08;100189.25;5093239;28;20394;-66
2023/08/11 03:04:18;;;;;;;0.40;0.40;;;;;;;12.66;80.16;100189.25;5093350;28;20036;-66
2023/08/11 03:06:49;;;;;;;2.05;1.02;;;;;;;12.56;80.23;100191.81;5092381;28;20451;-66
2023/08/11 03:09:18;;;;;;;0.85;0.55;;;;;;;12.31;80.14;100195.25;5093253;28;20040;-66
2023/08/11 03:11:47;;;;;;;0.75;0.65;;;;;;;12.17;80.44;100196.91;5092324;28;20032;-66
2023/08/11 03:14:17;;;;;;;1.15;0.85;;;;;;;12.21;80.84;100198.63;5093473;28;20093;-66
2023/08/11 03:16:46;;;;;;;0.50;0.50;;;;;;;12.28;80.64;100197.78;5092334;28;20422;-66
2023/08/11 03:19:18;;;;;;;1.55;1.45;;;;;;;12.16;80.61;100195.22;5092622;28;20409;-66
2023/08/11 03:21:47;;;;;;;0.60;0.60;;;;;;;11.98;80.83;100202.00;5093177;28;20048;-66
2023/08/11 03:24:16;;;;;;;;;;;;;;;11.75;80.97;100198.56;5093859;28;20064;-66
2023/08/11 03:26:45;;;;;;;0.43;0.43;;;;;;;11.67;81.50;100207.88;5093415;28;19920;-66
2023/08/11 03:29:14;;;;;;;0.70;0.70;;;;;;;11.63;81.44;100206.16;5094205;28;20089;-66
2023/08/11 03:31:44;;;;;;;0.65;0.65;;;;;;;11.50;81.89;100201.84;5097033;28;20440;-66
2023/08/11 03:34:14;;;;;;;1.38;1.10;;;;;;;11.63;82.07;100210.41;5097019;28;20048;-66
2023/08/11 03:36:45;;;;;;;1.10;0.98;;;;;;;11.67;82.18;100200.19;5096978;28;20040;-66
2023/08/11 03:39:15;;;;;;;0.50;0.50;;;;;;;11.71;82.00;100206.22;5095804;28;20056;-66
2023/08/11 03:41:44;;;;;;;0.65;0.65;;;;;;;11.81;82.32;100211.34;5095661;28;20512;-66
2023/08/11 03:44:13;;;;;;;0.52;0.52;;;;;;;11.92;82.18;100212.25;5095100;28;20055;-66
2023/08/11 03:46:42;;;;;;;4.78;0.73;;;;;;;12.02;81.95;100213.94;5096828;28;20040;-66
2023/08/11 03:49:12;;;;;;;0.60;0.60;;;;;;;12.12;81.79;100219.94;5096798;28;20059;-66
2023/08/11 03:51:41;;;;;;;0.65;0.65;;;;;;;12.22;81.71;100213.13;5096425;28;20044;-66
2023/08/11 03:54:11;;;;;;;0.82;0.82;;;;;;;12.27;81.58;100219.09;5095140;28;20105;-65
2023/08/11 03:56:41;;;;;;;1.75;1.65;;;;;;;12.26;81.16;100222.53;5095224;28;20052;-65
2023/08/11 03:59:10;;;;;;;0.60;0.60;;;;;;;12.28;80.75;100218.25;5095392;28;20036;-65
2023/08/11 04:01:41;;;;;;;0.73;0.73;;;;;;;12.15;80.89;100219.09;5096324;28;20044;-66
2023/08/11 04:04:10;;;;;;;0.50;0.50;;;;;;;12.05;80.99;100219.06;5095286;28;20040;-66
2023/08/11 04:06:39;;;;;;;0.90;0.90;;;;;;;12.09;81.36;100220.78;5095261;28;20127;-65
2023/08/11 04:09:08;;;;;;;1.38;1.15;;;;;;;12.25;81.33;100225.94;5096673;28;20078;-65
2023/08/11 04:11:38;;;;;;;1.05;0.77;;;;;;;12.27;81.40;100226.78;5096027;28;20050;-65
2023/08/11 04:14:07;;;;;;;0.63;0.63;;;;;;;12.29;81.51;100227.63;5095187;28;20394;-66
2023/08/11 04:16:36;;;;;;;1.33;1.00;;;;;;;12.40;81.40;100238.75;5094735;28;20493;-66
2023/08/11 04:19:05;;;;;;;1.42;1.33;;;;;;;12.44;81.48;100227.66;5096390;28;20047;-66
2023/08/11 04:21:34;;;;;;;1.17;1.08;;;;;;;12.51;81.56;100222.53;5096083;28;20044;-66
2023/08/11 04:24:04;;;;;;;4.57;2.03;;;;;;;12.62;81.89;100232.78;5095787;28;20447;-66
2023/08/11 04:26:34;;;;;;;;;;;;;;;12.76;81.49;100225.97;5096152;28;20570;-66
2023/08/11 04:29:05;;;;;;;0.60;0.60;;;;;;;12.81;81.60;100226.81;5095966;28;20010;-66
2023/08/11 04:31:35;;;;;;;1.25;1.10;;;;;;;12.92;81.47;100227.63;5095757;28;20356;-66
2023/08/11 04:34:06;;;;;;;0.50;0.50;;;;;;;12.99;81.40;100233.59;5094342;28;20064;-66
2023/08/11 04:36:35;;;;;;;2.10;1.35;;;;;;;13.05;81.42;100234.44;5095544;28;20075;-65
2023/08/11 04:39:05;;;;;;;1.60;0.88;;;;;;;13.14;81.27;100239.59;5093948;28;20051;-66
2023/08/11 04:41:35;;;;;;;0.98;0.90;;;;;;;13.21;81.07;100246.41;5094714;28;20146;-66
2023/08/11 04:44:05;;;;;;;1.08;0.98;;;;;;;13.26;81.10;100243.84;5095633;28;20474;-66
2023/08/11 04:46:35;;;;;;;1.25;1.13;;;;;;;13.36;80.73;100236.09;5094617;28;20047;-66
2023/08/11 04:49:04;;;;;;;2.27;1.80;;;;;;;13.38;81.00;100236.97;5094348;28;20044;-66
2023/08/11 04:51:33;;;;;;;4.30;1.40;;;;;;;13.42;80.72;100243.78;5095293;28;20055;-66
2023/08/11 04:54:03;;;;;;;1.57;1.47;;;;;;;13.47;80.57;100242.91;5128330;27;20118;-66
2023/08/11 04:56:32;;;;;;;1.17;1.08;;;;;;;13.54;80.52;100250.56;5110968;28;20525;-68
2023/08/11 04:59:03;;;;;;;1.38;1.27;;;;;;;13.54;80.12;100255.69;5096016;28;20378;-66
2023/08/11 05:01:33;;;;;;;0.50;0.50;;;;;;;13.59;79.91;100255.69;5095044;28;20055;-66
2023/08/11 05:04:04;;;;;;;0.93;0.90;;;;;;;13.64;79.90;100256.53;5094987;28;20040;-67
2023/08/11 05:06:35;;;;;;;0.95;0.93;;;;;;;13.74;79.79;100265.91;5095004;28;20040;-66
2023/08/11 05:09:04;;;;;;;;;;;;;;;13.86;79.78;100268.41;5096148;28;20525;-66
2023/08/11 05:11:33;;;;;;;0.47;0.47;;;;;;;13.94;79.29;100274.38;5094805;28;19924;-66
2023/08/11 05:14:02;;;;;;;0.73;0.73;;;;;;;14.07;79.19;100270.88;5094794;28;20036;-66
2023/08/11 05:16:31;;;;;;;0.83;0.60;;;;;;;14.14;79.32;100272.53;5094720;28;20047;-66
2023/08/11 05:19:01;;;;;;;0.75;0.75;;;;;;;14.19;79.15;100272.50;5095010;28;20074;-67
2023/08/11 05:21:30;;;;;;;1.35;1.25;;;;;;;14.24;79.16;100281.91;5094719;28;20098;-66
2023/08/11 05:23:59;;;;;;;1.20;1.10;;;;;;;14.34;78.44;100280.16;5094617;28;20055;-67
2023/08/11 05:26:28;;;;;;;1.10;1.00;;;;;;;14.34;78.84;100278.44;5094842;28;20040;-67
2023/08/11 05:28:57;;;;;;;0.70;0.70;;;;;;;14.46;78.65;100282.66;5094826;28;20029;-67
2023/08/11 05:31:26;;;;;;;1.23;1.13;;;;;;;14.56;78.55;100280.00;5094764;28;20028;-66
2023/08/11 05:33:56;;;;;;;0.60;0.60;;;;;;;14.67;78.60;100283.34;5094519;28;20048;-66
2023/08/11 05:36:27;;;;;;;2.80;0.90;;;;;;;14.82;78.11;100287.50;5094230;28;20040;-66
2023/08/11 05:38:56;;;;;;;1.10;0.98;;;;;;;14.96;78.22;100280.53;5094739;28;20048;-66
2023/08/11 05:41:25;;;;;;;1.90;1.25;;;;;;;15.10;77.56;100272.69;5094453;28;20501;-67
2023/08/11 05:43:54;;;;;;;4.57;2.43;;;;;;;15.23;77.50;100277.72;5093810;28;20041;-66
2023/08/11 05:46:22;;;;;;;1.07;1.00;;;;;;;15.37;76.89;100273.28;5094139;28;20044;-67
2023/08/11 05:48:51;;;;;;;1.20;1.08;;;;;;;15.53;76.58;100279.13;5093750;28;20036;-67
2023/08/11 05:51:20;;;;;;;0.57;0.57;;;;;;;15.67;76.09;100274.66;5094401;28;20127;-66
2023/08/11 05:53:50;;;;;;;0.70;0.70;;;;;;;15.79;75.66;100276.22;5094524;28;20040;-67
2023/08/11 05:56:22;;;;;;;14.85;1.50;;;;;;;15.84;75.19;100280.47;5094103;28;20383;-66
2023/08/11 05:58:50;;;;;;;0.70;0.70;;;;;;;15.95;75.52;100276.06;5094111;28;20044;-66
2023/08/11 06:01:19;;;;;;;0.50;0.50;;;;;;;16.12;75.00;100277.53;5093996;28;20547;-67
2023/08/11 06:03:48;;;;;;;0.70;0.70;;;;;;;16.25;74.75;100286.78;5094126;28;20460;-65
2023/08/11 06:06:17;;;;;;;1.30;1.07;;;;;;;16.37;74.68;100284.03;5093854;28;20366;-66
2023/08/11 06:08:46;;;;;;;2.17;0.93;;;;;;;16.53;74.37;100277.84;5093836;28;20866;-66
2023/08/11 06:11:17;;;;;;;1.02;0.98;;;;;;;16.61;73.69;100281.13;5093783;28;20044;-66
2023/08/11 06:13:46;;;;;;;1.20;1.10;;;;;;;16.80;73.46;100279.94;5094112;28;20101;-68
2023/08/11 06:16:14;;;;;;;2.00;1.10;;;;;;;16.92;72.97;100276.31;5093661;28;20043;-66
2023/08/11 06:18:43;;;;;;;0.75;0.75;;;;;;;16.98;72.35;100271.94;5094092;28;20201;-68
2023/08/11 06:21:12;;;;;;;0.52;0.52;;;;;;;17.10;71.77;100274.28;5093707;28;20051;-66
2023/08/11 06:23:42;;;;;;;0.95;0.88;;;;;;;17.21;71.35;100271.50;5093692;28;20052;-68
2023/08/11 06:26:11;;;;;;;1.13;1.02;;;;;;;17.33;70.77;100279.88;5093598;28;20048;-65
2023/08/11 06:28:41;;;;;;;19.17;1.50;;;;;;;17.46;70.68;100279.66;5093894;28;20066;-67
2023/08/11 06:31:10;;;;;;;0.75;0.75;;;;;;;17.57;70.31;100277.72;5093716;28;20061;-67
2023/08/11 06:33:40;;;;;;;0.52;0.52;;;;;;;17.63;69.96;100275.03;5093489;28;20051;-65
2023/08/11 06:36:09;;;;;;;1.27;1.20;;;;;;;17.75;69.62;100278.25;5092792;28;20060;-65
2023/08/11 06:38:38;;;;;;;0.57;0.57;;;;;;;17.81;69.08;100278.09;5092564;28;20063;-66
2023/08/11 06:41:08;;;;;;;0.47;0.47;;;;;;;17.90;68.57;100282.25;5093424;28;20047;-67
2023/08/11 06:43:38;;;;;;;1.98;0.65;;;;;;;18.02;68.16;100281.97;5093541;28;20062;-65
2023/08/11 06:46:09;;;;;;;0.63;0.63;;;;;;;18.08;67.78;100282.69;5093736;28;20046;-67
2023/08/11 06:48:38;;;;;;;0.52;0.52;;;;;;;18.19;67.54;100285.03;5093399;28;20064;-68
2023/08/11 06:51:07;;;;;;;0.98;0.90;;;;;;;18.28;67.20;100286.59;5093892;28;20388;-67
2023/08/11 06:53:36;;;;;;;0.82;0.75;;;;;;;18.39;67.03;100282.88;5093304;28;20036;-67
2023/08/11 06:56:04;;;;;;;1.50;0.93;;;;;;;18.50;66.70;100291.25;5093777;28;20044;-67
2023/08/11 06:58:33;;;;;;;0.73;0.70;;;;;;;18.62;66.46;100285.78;5093283;28;20044;-67
2023/08/11 07:01:03;;;;;;;3.58;1.02;;;;;;;18.74;66.24;100284.63;5093344;28;20136;-67
2023/08/11 07:03:34;;;;;;;0.63;0.63;;;;;;;18.84;65.92;100285.25;5095207;28;20174;-68
2023/08/11 07:06:03;;;;;;;1.60;1.08;;;;;;;18.99;65.64;100280.56;5097383;28;20051;-67
2023/08/11 07:08:32;;;;;;;0.60;0.60;;;;;;;19.09;65.63;100286.38;5097537;28;20085;-65
2023/08/11 07:11:00;;;;;;;1.52;1.25;;;;;;;19.20;65.29;100286.91;5097264;28;20029;-68
2023/08/11 07:13:29;;;;;;;1.23;1.13;;;;;;;19.35;64.23;100278.75;5097189;28;20044;-68
2023/08/11 07:15:58;;;;;;;0.87;0.80;;;;;;;19.39;63.27;100286.44;5096975;28;20047;-67
2023/08/11 07:18:28;;;;;;;0.45;0.45;;;;;;;19.51;62.44;100280.06;5095798;28;20272;-66
2023/08/11 07:20:58;;;;;;;0.93;0.82;;;;;;;19.62;61.74;100283.22;5097369;28;20044;-67
2023/08/11 07:23:27;;;;;;;1.10;0.68;;;;;;;19.70;61.08;100286.44;5096989;28;20127;-66
2023/08/11 07:25:56;;;;;;;0.73;0.73;;;;;;;19.80;59.75;100282.69;5096627;28;20498;-67
2023/08/11 07:28:25;;;;;;;0.77;0.77;;;;;;;19.95;59.70;100282.25;5097372;28;20063;-67
2023/08/11 07:30:54;;;;;;;0.70;0.70;;;;;;;20.05;58.97;100283.69;5097444;28;20043;-68
2023/08/11 07:33:23;;;;;;;0.70;0.70;;;;;;;20.15;58.75;100278.22;5096772;28;20394;-67
2023/08/11 07:35:52;;;;;;;0.60;0.60;;;;;;;20.29;58.67;100283.88;5096645;28;20550;-67
2023/08/11 07:38:22;;;;;;;0.70;0.68;;;;;;;20.41;57.41;100286.09;5096925;28;20037;-68
2023/08/11 07:40:52;;;;;;;1.02;0.77;;;;;;;20.45;57.08;100285.94;5097003;28;20044;-67
2023/08/11 07:43:21;;;;;;;0.52;0.52;;;;;;;20.54;56.85;100283.06;5096963;28;20582;-68
2023/08/11 07:45:50;;;;;;;0.70;0.70;;;;;;;20.64;56.94;100284.47;5096260;28;20059;-67
2023/08/11 07:48:29;;;;;;;1.25;1.10;;;;;;;20.75;56.14;100286.72;5097446;28;20044;-65
2023/08/11 07:50:58;;;;;;;0.60;0.60;;;;;;;20.74;56.00;100295.41;5096674;28;20043;-68
2023/08/11 07:53:28;;;;;;;1.23;1.07;;;;;;;20.88;56.09;100285.41;5096385;28;20036;-67
2023/08/11 07:55:57;;;;;;;0.70;0.70;;;;;;;21.03;56.31;100289.25;5096478;28;20371;-67
2023/08/11 07:58:26;;;;;;;0.82;0.77;;;;;;;21.13;56.15;100282.88;5096542;28;20371;-69
2023/08/11 08:00:56;;;;;;;1.13;1.02;;;;;;;21.13;55.85;100294.13;5096882;28;20497;-68
2023/08/11 08:03:24;;;;;;;0.70;0.70;;;;;;;21.21;55.30;100294.69;5094983;28;20047;-67
2023/08/11 08:05:53;;;;;;;1.25;1.15;;;;;;;21.38;55.76;100284.56;5096430;28;20036;-67
2023/08/11 08:08:22;;;;;;;0.60;0.60;;;;;;;21.53;54.93;100287.53;5095972;28;20047;-68
2023/08/11 08:10:52;;;;;;;0.65;0.65;;;;;;;21.62;54.70;100292.41;5096023;28;20070;-68
2023/08/11 08:13:22;;;;;;;2.78;1.15;;;;;;;21.71;53.65;100284.28;5096305;28;20032;-68
2023/08/11 08:15:50;;;;;;;1.33;1.13;;;;;;;21.73;52.80;100280.72;5095988;28;20114;-68
2023/08/11 08:18:20;;;;;;;0.50;0.50;;;;;;;21.79;52.35;100290.03;5096156;28;20440;-68
2023/08/11 08:20:48;;;;;;;;;;;;;;;21.91;52.23;100284.41;5096241;28;20050;-66
2023/08/11 08:23:18;;;;;;;0.70;0.70;;;;;;;21.97;52.97;100289.38;5096153;28;19919;-67
2023/08/11 08:25:47;;;;;;;1.20;1.15;;;;;;;22.09;53.09;100278.53;5095739;28;20037;-68
2023/08/11 08:28:17;;;;;;;0.80;0.75;;;;;;;22.07;52.00;100275.16;5095717;28;20040;-68
2023/08/11 08:30:46;;;;;;;0.50;0.50;;;;;;;22.19;50.99;100279.03;5095677;28;20047;-67
2023/08/11 08:33:15;;;;;;;1.20;0.95;;;;;;;22.23;50.45;100281.44;5095577;28;20043;-68
2023/08/11 08:35:44;;;;;;;0.88;0.82;;;;;;;22.41;49.83;100285.09;5095916;28;20037;-68
2023/08/11 08:38:12;;;;;;;0.75;0.75;;;;;;;22.52;49.35;100282.91;5095420;28;20039;-67
2023/08/11 08:40:42;;;;;;;1.67;1.13;;;;;;;22.62;50.87;100285.13;5095577;28;20028;-68
2023/08/11 08:43:12;;;;;;;1.63;1.27;;;;;;;22.85;52.12;100280.72;5095393;28;20052;-67
2023/08/11 08:45:45;;;;;;;0.40;0.40;;;;;;;22.87;51.38;100273.69;5095297;28;20056;-68
2023/08/11 08:48:20;;;;;;;0.65;0.65;;;;;;;23.03;50.71;100279.97;5095026;28;20131;-69
2023/08/11 08:50:50;;;;;;;0.95;0.88;;;;;;;23.08;50.29;100272.81;5095835;28;20040;-67
2023/08/11 08:53:20;;;;;;;0.80;0.80;;;;;;;23.15;50.12;100276.84;5095225;28;20051;-68
2023/08/11 08:55:49;;;;;;;0.57;0.57;;;;;;;23.31;50.24;100276.13;5095114;28;20048;-68
2023/08/11 08:58:18;;;;;;;0.50;0.50;;;;;;;23.49;48.90;100279.69;5095086;28;20368;-67
2023/08/11 09:00:50;;;;;;;0.57;0.57;;;;;;;23.62;47.94;100265.22;5095234;28;20394;-67
2023/08/11 09:03:19;;;;;;;0.65;0.65;;;;;;;23.73;46.45;100269.97;5094955;28;20090;-68
2023/08/11 09:05:48;;;;;;;0.63;0.63;;;;;;;23.84;45.75;100276.38;5095244;28;20052;-68
2023/08/11 09:08:17;;;;;;;0.50;0.50;;;;;;;23.85;44.76;100270.22;5094856;28;20042;-68
2023/08/11 09:10:46;;;;;;;0.88;0.88;;;;;;;23.89;43.88;100271.81;5095253;28;20048;-68
2023/08/11 09:13:16;;;;;;;16.80;1.08;;;;;;;23.97;44.13;100269.66;5095029;28;20032;-67
2023/08/11 09:15:46;;;;;;;0.60;0.60;;;;;;;24.05;43.89;100273.69;5094971;28;20039;-65
2023/08/11 09:18:17;;;;;;;0.75;0.50;;;;;;;24.10;43.89;100261.31;5094950;28;20050;-68
2023/08/11 09:20:48;;;;;;;1.58;1.48;;;;;;;24.23;43.98;100270.25;5094951;28;20143;-67
2023/08/11 09:23:18;;;;;;;0.50;0.50;;;;;;;24.35;44.75;100267.06;5094667;28;20058;-69
2023/08/11 09:25:47;;;;;;;0.45;0.45;;;;;;;24.31;44.32;100266.34;5094013;28;20468;-69
2023/08/11 09:28:16;;;;;;;0.40;0.40;;;;;;;24.49;43.84;100275.09;5094641;28;20055;-69
2023/08/11 09:30:46;;;;;;;0.60;0.60;;;;;;;24.46;42.89;100267.38;5094885;28;20256;-67
2023/08/11 09:33:18;;;;;;;0.65;0.65;;;;;;;24.54;42.95;100262.66;5094378;28;20405;-68
2023/08/11 09:35:48;;;;;;;0.80;0.80;;;;;;;24.55;42.46;100270.41;5094704;28;20374;-68
2023/08/11 09:38:17;;;;;;;0.47;0.47;;;;;;;24.70;42.43;100273.19;5094464;28;20059;-68
2023/08/11 09:40:47;;;;;;;;;;;;;;;24.83;42.64;100259.50;5094643;28;20501;-67
2023/08/11 09:43:16;;;;;;;0.70;0.70;;;;;;;24.90;42.15;100268.72;5094671;28;20330;-68
2023/08/11 09:45:44;;;;;;;0.40;0.40;;;;;;;24.85;40.97;100268.09;5094119;28;20048;-68
2023/08/11 09:48:13;;;;;;;0.60;0.60;;;;;;;24.75;41.09;100263.34;5094418;28;20040;-70
2023/08/11 09:50:45;;;;;;;1.80;1.25;;;;;;;24.82;41.11;100263.00;5094120;28;20046;-68
2023/08/11 09:53:18;;;;;;;1.50;1.02;;;;;;;24.88;41.29;100262.72;5094146;28;20094;-68
2023/08/11 09:55:49;;;;;;;0.60;0.60;;;;;;;24.96;41.13;100265.78;5094432;28;20051;-68
2023/08/11 09:58:19;;;;;;;0.60;0.60;;;;;;;24.96;40.98;100260.56;5094413;28;20141;-67
2023/08/11 10:00:49;;;;;;;0.50;0.50;;;;;;;25.03;41.18;100261.94;5094327;28;20051;-68
2023/08/11 10:03:25;;;;;;;0.60;0.60;;;;;;;24.97;40.59;100251.81;5093970;28;20166;-68
2023/08/11 10:06:00;;;;;;;0.30;0.30;;;;;;;25.16;40.69;100249.94;5093888;28;20062;-68
2023/08/11 10:08:30;;;;;;;0.40;0.40;;;;;;;25.30;42.04;100250.06;5094274;28;20394;-65
2023/08/11 10:11:01;;;;;;;0.50;0.50;;;;;;;25.42;41.78;100247.72;5094117;28;20402;-67
2023/08/11 10:13:30;;;;;;;0.68;0.68;;;;;;;25.54;41.41;100242.75;5094116;28;20040;-67
2023/08/11 10:15:59;;;;;;;0.52;0.52;;;;;;;25.51;40.14;100244.66;5093812;28;20040;-69
2023/08/11 10:18:31;;;;;;;0.60;0.60;;;;;;;25.62;39.42;100244.97;5093852;28;20516;-67
2023/08/11 10:21:01;;;;;;;0.60;0.60;;;;;;;25.70;38.62;100247.97;5093694;28;20044;-68
2023/08/11 10:23:31;;;;;;;0.73;0.73;;;;;;;25.73;38.78;100237.38;5094330;28;20440;-67
2023/08/11 10:26:00;;;;;;;0.40;0.40;;;;;;;25.95;40.52;100233.50;5093905;28;20044;-67
2023/08/11 10:28:29;;;;;;;0.43;0.43;;;;;;;26.15;40.67;100240.31;5093725;28;20055;-68
2023/08/11 10:31:00;;;;;;;0.43;0.43;;;;;;;26.31;40.31;100240.28;5093547;28;20046;-68
2023/08/11 10:33:31;;;;;;;0.70;0.70;;;;;;;26.12;38.67;100235.22;5093643;28;20048;-68
2023/08/11 10:36:02;;;;;;;7.97;0.88;;;;;;;26.04;38.57;100242.63;5093526;28;20051;-67
2023/08/11 10:38:33;;;;;;;0.40;0.40;;;;;;;26.03;38.11;100240.94;5096841;28;20432;-68
2023/08/11 10:41:04;;;;;;;0.40;0.40;;;;;;;25.85;37.48;100241.94;5097785;28;20482;-71
2023/08/11 10:43:35;;;;;;;0.43;0.43;;;;;;;25.93;37.87;100237.13;5096881;28;20049;-71
2023/08/11 10:46:18;;;;;;;0.50;0.50;;;;;;;25.87;37.96;100234.84;5098325;28;20101;-70
2023/08/11 10:48:47;;;;;;;0.40;0.40;;;;;;;25.77;37.46;100233.69;5097948;28;20043;-69
2023/08/11 10:51:29;;;;;;;3.20;0.95;;;;;;;25.67;37.00;100228.09;5096330;28;20044;-69
2023/08/11 10:54:01;;;;;;;0.40;0.40;;;;;;;25.91;37.06;100234.59;5097538;28;20055;-70
2023/08/11 10:56:34;;;;;;;1.27;1.00;;;;;;;26.23;38.20;100227.59;5097959;28;20067;-69
2023/08/11 10:59:08;;;;;;;0.63;0.50;;;;;;;26.38;37.50;100226.75;5096339;28;20040;-72
2023/08/11 11:01:39;;;;;;;0.88;0.80;;;;;;;26.35;37.41;100231.31;5097990;28;20435;-68
2023/08/11 11:04:09;;;;;;;0.50;0.50;;;;;;;26.42;37.99;100228.25;5097474;28;20052;-69
2023/08/11 11:06:40;;;;;;;0.35;0.35;;;;;;;26.29;35.84;100221.19;5097351;28;20101;-68
2023/08/11 11:09:09;;;;;;;0.50;0.50;;;;;;;26.39;36.75;100228.44;5097273;28;20089;-67
2023/08/11 11:11:38;;;;;;;0.88;0.85;;;;;;;26.51;36.33;100227.72;5097313;28;20511;-67
2023/08/11 11:14:08;;;;;;;;;;;;;;;26.43;33.81;100227.34;5097546;28;20539;-68
2023/08/11 11:16:37;;;;;;;0.50;0.50;;;;;;;26.28;33.31;100220.34;5097114;28;20400;-68
2023/08/11 11:19:07;;;;;;;;;;;;;;;26.40;33.53;100229.28;5095696;28;20070;-67
2023/08/11 11:21:36;;;;;;;0.70;0.70;;;;;;;26.30;33.22;100218.47;5092966;28;19927;-66
2023/08/11 11:24:08;;;;;;;0.68;0.68;;;;;;;26.54;34.52;100219.69;5096907;28;20067;-67
2023/08/11 11:26:37;;;;;;;0.77;0.77;;;;;;;26.80;34.24;100222.63;5096915;28;20055;-68
2023/08/11 11:29:06;;;;;;;0.85;0.85;;;;;;;26.86;33.47;100219.63;5097220;28;20405;-67
2023/08/11 11:31:37;;;;;;;0.77;0.77;;;;;;;26.97;33.05;100214.63;5097186;28;20440;-69
2023/08/11 11:34:07;;;;;;;0.50;0.50;;;;;;;26.89;33.13;100212.44;5096965;28;20036;-65
2023/08/11 11:36:36;;;;;;;0.73;0.73;;;;;;;26.91;32.42;100225.44;5096913;28;20051;-67
2023/08/11 11:39:08;;;;;;;0.40;0.40;;;;;;;26.96;32.49;100220.78;5096647;28;20055;-70